createdAt,value
2018-10-02T00:01:04.088Z,79.28
2018-10-02T00:02:14.228Z,79.24
2018-10-02T00:03:24.406Z,79.19
2018-10-02T00:04:34.542Z,78.77
2018-10-02T00:05:44.804Z,78.71
2018-10-02T00:06:55.192Z,79.09
2018-10-02T00:08:05.308Z,79.09
2018-10-02T00:09:15.641Z,78.77
2018-10-02T00:10:25.785Z,79.24
2018-10-02T00:11:35.555Z,78.8
2018-10-02T00:12:45.651Z,79.24
2018-10-02T00:13:55.776Z,78.67
2018-10-02T00:15:05.877Z,79.14
2018-10-02T00:16:16.403Z,78.86
2018-10-02T00:17:26.534Z,78.86
2018-10-02T00:18:36.665Z,78.86
2018-10-02T00:19:46.800Z,78.96
2018-10-02T00:20:56.903Z,78.86
2018-10-02T00:22:07.007Z,79.14
2018-10-02T00:23:17.118Z,78.86
2018-10-02T00:24:27.263Z,78.67
2018-10-02T00:25:37.397Z,79.05
2018-10-02T00:26:47.297Z,78.86
2018-10-02T00:27:57.516Z,78.77
2018-10-02T00:29:07.725Z,78.77
2018-10-02T00:30:17.915Z,79.05
2018-10-02T00:31:28.424Z,78.96
2018-10-02T00:32:39.017Z,79.05
2018-10-02T00:33:49.131Z,79.05
2018-10-02T00:34:58.990Z,79.24
2018-10-02T00:36:09.119Z,79.14
2018-10-02T00:37:19.288Z,79.14
2018-10-02T00:38:29.498Z,78.86
2018-10-02T00:39:39.833Z,79.14
2018-10-02T00:40:50.031Z,79.72
2018-10-02T00:42:00.131Z,79.33
2018-10-02T00:43:09.990Z,79.33
2018-10-02T00:44:20.259Z,79.43
2018-10-02T00:45:30.444Z,79.52
2018-10-02T00:46:40.586Z,79.62
2018-10-02T00:47:50.757Z,79.24
2018-10-02T00:49:01.145Z,79.24
2018-10-02T00:50:11.272Z,79.14
2018-10-02T00:51:21.443Z,79.05
2018-10-02T00:52:31.604Z,79.24
2018-10-02T00:53:41.764Z,79.52
2018-10-02T00:54:51.871Z,79.33
2018-10-02T00:56:02.024Z,79.33
2018-10-02T00:57:12.137Z,79.52
2018-10-02T00:58:22.246Z,79.14
2018-10-02T00:59:32.206Z,79.43
2018-10-02T01:00:42.591Z,79.33
2018-10-02T01:01:52.700Z,79.33
2018-10-02T01:03:02.841Z,79.05
2018-10-02T01:04:12.982Z,79.14
2018-10-02T01:05:23.355Z,79.24
2018-10-02T01:06:33.674Z,79.24
2018-10-02T01:07:43.769Z,79.52
2018-10-02T01:08:53.872Z,79.24
2018-10-02T01:10:03.563Z,79.24
2018-10-02T01:11:13.299Z,79.05
2018-10-02T01:12:23.466Z,79.24
2018-10-02T01:13:33.797Z,79.24
2018-10-02T01:14:44.039Z,79.33
2018-10-02T01:15:54.245Z,79.14
2018-10-02T01:17:04.453Z,79.33
2018-10-02T01:18:14.810Z,79.52
2018-10-02T01:19:24.693Z,79.52
2018-10-02T01:20:34.807Z,79.24
2018-10-02T01:21:44.942Z,79.52
2018-10-02T01:22:55.089Z,79.33
2018-10-02T01:24:05.247Z,79.14
2018-10-02T01:25:15.606Z,79.14
2018-10-02T01:26:25.728Z,79.14
2018-10-02T01:27:35.575Z,79.33
2018-10-02T01:28:45.723Z,79.14
2018-10-02T01:29:55.608Z,79.33
2018-10-02T01:31:05.716Z,79.52
2018-10-02T01:32:15.873Z,79.72
2018-10-02T01:33:26.126Z,79.52
2018-10-02T01:34:36.219Z,79.72
2018-10-02T01:35:46.379Z,79.43
2018-10-02T01:36:56.470Z,79.14
2018-10-02T01:38:06.544Z,79.14
2018-10-02T01:39:16.388Z,79.14
2018-10-02T01:40:26.253Z,78.86
2018-10-02T01:41:37.326Z,79.24
2018-10-02T01:42:47.840Z,79.24
2018-10-02T01:43:57.964Z,78.77
2018-10-02T01:45:07.765Z,79.05
2018-10-02T01:46:17.872Z,79.24
2018-10-02T01:47:27.720Z,79.05
2018-10-02T01:48:37.552Z,79.24
2018-10-02T01:49:47.430Z,79.43
2018-10-02T01:50:58.501Z,79.33
2018-10-02T01:52:08.812Z,79.43
2018-10-02T01:53:18.697Z,79.24
2018-10-02T01:54:28.832Z,79.43
2018-10-02T01:55:38.990Z,79.43
2018-10-02T01:56:49.116Z,79.72
2018-10-02T01:57:59.235Z,79.05
2018-10-02T01:59:09.409Z,79.05
2018-10-02T02:00:19.544Z,79.33
2018-10-02T02:01:29.669Z,78.86
2018-10-02T02:02:39.822Z,78.86
2018-10-02T02:03:50.059Z,78.91
2018-10-02T02:04:59.657Z,78.96
2018-10-02T02:06:09.467Z,78.67
2018-10-02T02:07:19.590Z,79.11
2018-10-02T02:08:29.664Z,79.24
2018-10-02T02:09:39.660Z,78.72
2018-10-02T02:10:49.781Z,79.11
2018-10-02T02:12:00.064Z,78.91
2018-10-02T02:13:10.347Z,78.82
2018-10-02T02:14:20.474Z,79.3
2018-10-02T02:15:30.340Z,79.2
2018-10-02T02:16:40.473Z,78.77
2018-10-02T02:17:50.797Z,78.72
2018-10-02T02:19:00.941Z,78.91
2018-10-02T02:20:11.055Z,79.01
2018-10-02T02:21:20.862Z,78.86
2018-10-02T02:22:31.051Z,78.86
2018-10-02T02:23:41.225Z,78.96
2018-10-02T02:24:51.357Z,79.01
2018-10-02T02:26:01.628Z,78.82
2018-10-02T02:27:11.779Z,78.82
2018-10-02T02:28:21.998Z,78.86
2018-10-02T02:29:32.113Z,78.72
2018-10-02T02:30:42.248Z,79.01
2018-10-02T02:31:52.312Z,78.63
2018-10-02T02:33:02.412Z,78.91
2018-10-02T02:34:12.553Z,78.91
2018-10-02T02:35:22.432Z,79.01
2018-10-02T02:36:32.745Z,79.01
2018-10-02T02:37:43.008Z,78.91
2018-10-02T02:38:53.149Z,78.91
2018-10-02T02:40:03.000Z,78.91
2018-10-02T02:41:12.865Z,78.82
2018-10-02T02:42:22.960Z,79.01
2018-10-02T02:43:33.113Z,78.72
2018-10-02T02:44:43.286Z,79.11
2018-10-02T02:45:53.437Z,79.11
2018-10-02T02:47:03.668Z,79.11
2018-10-02T02:48:13.864Z,79.01
2018-10-02T02:49:24.043Z,78.91
2018-10-02T02:50:34.360Z,79.01
2018-10-02T02:51:44.616Z,78.63
2018-10-02T02:52:54.982Z,79.01
2018-10-02T02:54:05.552Z,79.01
2018-10-02T02:55:15.799Z,78.72
2018-10-02T02:56:25.940Z,79.2
2018-10-02T02:57:36.221Z,78.91
2018-10-02T02:58:46.397Z,79.01
2018-10-02T02:59:56.526Z,78.72
2018-10-02T03:01:06.663Z,78.82
2018-10-02T03:02:17.741Z,79.11
2018-10-02T03:03:28.875Z,78.82
2018-10-02T03:04:39.003Z,78.82
2018-10-02T03:05:49.357Z,78.91
2018-10-02T03:06:59.511Z,78.82
2018-10-02T03:08:09.286Z,78.82
2018-10-02T03:09:19.409Z,79.3
2018-10-02T03:10:29.261Z,79.01
2018-10-02T03:11:39.370Z,79.01
2018-10-02T03:12:49.579Z,78.53
2018-10-02T03:13:59.717Z,78.82
2018-10-02T03:15:09.682Z,78.91
2018-10-02T03:16:19.916Z,79.01
2018-10-02T03:17:30.016Z,79.06
2018-10-02T03:18:40.207Z,78.88
2018-10-02T03:19:50.349Z,78.88
2018-10-02T03:21:00.479Z,79.16
2018-10-02T03:22:10.586Z,79.58
2018-10-02T03:23:20.705Z,79.49
2018-10-02T03:24:30.934Z,80.05
2018-10-02T03:25:40.799Z,79.49
2018-10-02T03:26:50.893Z,79.49
2018-10-02T03:28:01.044Z,79.49
2018-10-02T03:29:11.236Z,79.39
2018-10-02T03:30:21.089Z,79.35
2018-10-02T03:31:31.225Z,79.44
2018-10-02T03:32:41.651Z,79.54
2018-10-02T03:33:52.015Z,79.92
2018-10-02T03:35:01.884Z,80.02
2018-10-02T03:36:11.733Z,79.92
2018-10-02T03:37:21.850Z,79.92
2018-10-02T03:38:31.608Z,80.02
2018-10-02T03:39:41.751Z,79.96
2018-10-02T03:40:51.918Z,79.92
2018-10-02T03:42:02.062Z,79.96
2018-10-02T03:43:12.409Z,79.96
2018-10-02T03:44:22.539Z,79.96
2018-10-02T03:45:32.697Z,79.96
2018-10-02T03:46:42.767Z,79.86
2018-10-02T03:47:52.883Z,79.96
2018-10-02T03:49:03.058Z,79.77
2018-10-02T03:50:13.478Z,79.77
2018-10-02T03:51:23.608Z,79.11
2018-10-02T03:52:33.750Z,79.39
2018-10-02T03:53:43.867Z,79.49
2018-10-02T03:54:53.607Z,79.49
2018-10-02T03:56:03.847Z,79.49
2018-10-02T03:57:14.042Z,79.25
2018-10-02T03:58:25.140Z,79.25
2018-10-02T03:59:35.274Z,79.25
2018-10-02T04:00:45.395Z,79.25
2018-10-02T04:01:55.495Z,79.54
2018-10-02T04:03:05.721Z,79.73
2018-10-02T04:04:15.967Z,79.92
2018-10-02T04:05:26.145Z,79.83
2018-10-02T04:06:36.412Z,79.73
2018-10-02T04:07:47.716Z,80.49
2018-10-02T04:08:57.467Z,80.58
2018-10-02T04:10:07.437Z,80.58
2018-10-02T04:11:17.548Z,80.3
2018-10-02T04:12:27.648Z,80.87
2018-10-02T04:13:38.017Z,80.58
2018-10-02T04:14:48.103Z,80.77
2018-10-02T04:15:58.228Z,80.58
2018-10-02T04:17:08.355Z,80.77
2018-10-02T04:18:18.208Z,80.68
2018-10-02T04:19:28.058Z,80.68
2018-10-02T04:20:38.267Z,80.58
2018-10-02T04:21:48.743Z,80.87
2018-10-02T04:22:58.848Z,80.77
2018-10-02T04:24:08.707Z,80.4
2018-10-02T04:25:18.824Z,80.4
2018-10-02T04:26:28.932Z,80.4
2018-10-02T04:27:39.036Z,80.68
2018-10-02T04:28:49.531Z,80.58
2018-10-02T04:29:59.876Z,80.58
2018-10-02T04:31:10.232Z,80.58
2018-10-02T04:32:20.354Z,80.77
2018-10-02T04:33:30.517Z,80.4
2018-10-02T04:34:40.757Z,80.49
2018-10-02T04:35:50.895Z,80.4
2018-10-02T04:37:01.025Z,80.58
2018-10-02T04:38:11.059Z,80.58
2018-10-02T04:39:20.990Z,80.77
2018-10-02T04:40:31.063Z,80.58
2018-10-02T04:41:40.909Z,80.58
2018-10-02T04:42:51.038Z,80.58
2018-10-02T04:44:01.191Z,80.87
2018-10-02T04:45:11.334Z,80.11
2018-10-02T04:46:21.512Z,80.21
2018-10-02T04:47:31.753Z,80.11
2018-10-02T04:48:42.936Z,80.11
2018-10-02T04:49:53.119Z,80.02
2018-10-02T04:51:03.388Z,79.92
2018-10-02T04:52:13.584Z,79.92
2018-10-02T04:53:23.755Z,79.73
2018-10-02T04:54:33.976Z,80.02
2018-10-02T04:55:44.324Z,79.92
2018-10-02T04:56:54.630Z,79.83
2018-10-02T04:58:04.833Z,79.92
2018-10-02T04:59:15.020Z,79.35
2018-10-02T05:00:24.926Z,79.44
2018-10-02T05:01:35.045Z,79.44
2018-10-02T05:02:45.154Z,79.44
2018-10-02T05:03:55.090Z,79.35
2018-10-02T05:05:05.197Z,79.44
2018-10-02T05:06:15.390Z,79.54
2018-10-02T05:07:25.545Z,79.44
2018-10-02T05:08:35.759Z,79.44
2018-10-02T05:09:45.745Z,79.92
2018-10-02T05:10:55.642Z,79.35
2018-10-02T05:12:05.647Z,79.54
2018-10-02T05:13:16.124Z,79.25
2018-10-02T05:14:26.323Z,79.44
2018-10-02T05:15:36.204Z,78.97
2018-10-02T05:16:46.399Z,79.44
2018-10-02T05:17:56.643Z,79.54
2018-10-02T05:19:06.885Z,79.44
2018-10-02T05:20:17.061Z,79.44
2018-10-02T05:21:27.469Z,79.35
2018-10-02T05:22:37.631Z,79.54
2018-10-02T05:23:47.770Z,79.35
2018-10-02T05:24:57.900Z,79.44
2018-10-02T05:26:08.089Z,79.06
2018-10-02T05:27:18.518Z,79.16
2018-10-02T05:28:29.240Z,79.44
2018-10-02T05:29:39.364Z,78.97
2018-10-02T05:30:49.485Z,79.16
2018-10-02T05:31:59.695Z,79.44
2018-10-02T05:33:09.881Z,79.25
2018-10-02T05:34:19.718Z,79.25
2018-10-02T05:35:29.528Z,79.25
2018-10-02T05:36:39.854Z,79.44
2018-10-02T05:37:49.992Z,79.63
2018-10-02T05:39:00.122Z,79.54
2018-10-02T05:40:10.259Z,79.44
2018-10-02T05:41:19.754Z,79.44
2018-10-02T05:42:29.929Z,79.54
2018-10-02T05:43:40.060Z,79.54
2018-10-02T05:44:50.509Z,79.35
2018-10-02T05:46:00.426Z,79.35
2018-10-02T05:47:10.651Z,79.44
2018-10-02T05:48:20.830Z,79.44
2018-10-02T05:49:30.958Z,78.97
2018-10-02T05:50:41.021Z,79.16
2018-10-02T05:51:51.467Z,79.44
2018-10-02T05:53:01.607Z,79.16
2018-10-02T05:54:11.719Z,79.44
2018-10-02T05:55:21.855Z,79.39
2018-10-02T05:56:31.975Z,79.11
2018-10-02T05:57:42.104Z,78.82
2018-10-02T05:58:52.313Z,78.82
2018-10-02T06:00:01.943Z,79.01
2018-10-02T06:01:12.083Z,78.82
2018-10-02T06:02:22.264Z,79.01
2018-10-02T06:03:32.699Z,78.53
2018-10-02T06:04:42.921Z,78.34
2018-10-02T06:05:53.057Z,78.34
2018-10-02T06:07:03.180Z,78.53
2018-10-02T06:08:13.314Z,78.44
2018-10-02T06:09:23.195Z,78.16
2018-10-02T06:10:33.313Z,78.44
2018-10-02T06:11:43.434Z,78.44
2018-10-02T06:12:53.571Z,78.34
2018-10-02T06:14:03.980Z,78.44
2018-10-02T06:15:14.131Z,77.97
2018-10-02T06:16:24.260Z,78.16
2018-10-02T06:17:34.626Z,78.25
2018-10-02T06:18:44.906Z,78.06
2018-10-02T06:19:55.459Z,77.87
2018-10-02T06:21:05.829Z,78.06
2018-10-02T06:22:16.137Z,78.06
2018-10-02T06:23:26.573Z,77.77
2018-10-02T06:24:36.803Z,77.97
2018-10-02T06:25:47.451Z,78.16
2018-10-02T06:26:57.296Z,77.87
2018-10-02T06:28:07.662Z,77.87
2018-10-02T06:29:17.766Z,77.87
2018-10-02T06:30:29.109Z,77.97
2018-10-02T06:31:39.555Z,77.77
2018-10-02T06:32:51.012Z,77.58
2018-10-02T06:34:01.007Z,77.49
2018-10-02T06:35:11.328Z,77.49
2018-10-02T06:36:21.460Z,77.97
2018-10-02T06:37:31.817Z,77.3
2018-10-02T06:38:42.176Z,77.39
2018-10-02T06:39:52.669Z,77.2
2018-10-02T06:41:02.844Z,77.11
2018-10-02T06:42:13.005Z,76.92
2018-10-02T06:43:23.137Z,77.01
2018-10-02T06:44:33.363Z,77.2
2018-10-02T06:45:43.892Z,77.11
2018-10-02T06:46:54.004Z,76.92
2018-10-02T06:48:04.160Z,76.73
2018-10-02T06:49:14.471Z,76.82
2018-10-02T06:50:24.621Z,76.76
2018-10-02T06:51:34.839Z,76.86
2018-10-02T06:52:45.687Z,76.57
2018-10-02T06:53:56.413Z,76.2
2018-10-02T06:55:06.551Z,75.91
2018-10-02T06:56:16.691Z,76.01
2018-10-02T06:57:26.635Z,75.81
2018-10-02T06:58:36.795Z,76.01
2018-10-02T06:59:46.916Z,75.62
2018-10-02T07:00:57.122Z,75.72
2018-10-02T07:02:07.390Z,75.43
2018-10-02T07:03:17.579Z,75.43
2018-10-02T07:04:27.775Z,75.43
2018-10-02T07:05:37.971Z,75.34
2018-10-02T07:06:51.860Z,75.05
2018-10-02T07:08:02.204Z,75.24
2018-10-02T07:09:12.401Z,75.24
2018-10-02T07:10:22.556Z,75.43
2018-10-02T07:11:32.680Z,75.43
2018-10-02T07:12:43.940Z,75.15
2018-10-02T07:13:54.307Z,75.15
2018-10-02T07:15:04.665Z,75.15
2018-10-02T07:16:15.458Z,74.77
2018-10-02T07:17:25.696Z,74.77
2018-10-02T07:18:36.138Z,74.87
2018-10-02T07:19:45.997Z,74.99
2018-10-02T07:20:56.384Z,74.67
2018-10-02T07:22:07.029Z,74.43
2018-10-02T07:23:17.404Z,74.33
2018-10-02T07:24:27.604Z,74.52
2018-10-02T07:25:37.770Z,74.43
2018-10-02T07:26:48.547Z,74.62
2018-10-02T07:28:00.992Z,74.33
2018-10-02T07:29:11.798Z,73.85
2018-10-02T07:30:21.980Z,74.04
2018-10-02T07:31:32.356Z,74.24
2018-10-02T07:32:42.472Z,74.33
2018-10-02T07:33:53.207Z,73.95
2018-10-02T07:35:03.797Z,73.76
2018-10-02T07:36:13.989Z,73.66
2018-10-02T07:37:24.250Z,73.95
2018-10-02T07:38:34.565Z,74.04
2018-10-02T07:39:44.319Z,73.57
2018-10-02T07:40:54.658Z,73.95
2018-10-02T07:42:05.062Z,73.61
2018-10-02T07:43:15.851Z,73.89
2018-10-02T07:44:26.076Z,73.51
2018-10-02T07:45:36.563Z,73.7
2018-10-02T07:46:46.542Z,73.41
2018-10-02T07:47:56.471Z,73.61
2018-10-02T07:49:08.292Z,73.7
2018-10-02T07:50:18.620Z,73.51
2018-10-02T07:51:28.848Z,73.51
2018-10-02T07:52:39.004Z,73.51
2018-10-02T07:53:49.258Z,72.94
2018-10-02T07:54:59.349Z,73.22
2018-10-02T07:56:09.486Z,73.13
2018-10-02T07:57:19.881Z,72.94
2018-10-02T07:58:30.093Z,72.75
2018-10-02T07:59:40.398Z,73.13
2018-10-02T08:00:50.934Z,73.22
2018-10-02T08:02:01.344Z,72.85
2018-10-02T08:03:11.833Z,72.75
2018-10-02T08:04:21.769Z,72.94
2018-10-02T08:05:32.040Z,72.08
2018-10-02T08:06:42.470Z,72.17
2018-10-02T08:07:52.598Z,72.56
2018-10-02T08:09:02.914Z,72.27
2018-10-02T08:10:13.300Z,72.37
2018-10-02T08:11:23.528Z,72.08
2018-10-02T08:12:34.008Z,72.17
2018-10-02T08:13:44.270Z,72.37
2018-10-02T08:14:54.736Z,71.98
2018-10-02T08:16:05.099Z,72.27
2018-10-02T08:17:14.879Z,72.46
2018-10-02T08:18:25.063Z,72.08
2018-10-02T08:19:35.235Z,72.17
2018-10-02T08:20:45.609Z,72.27
2018-10-02T08:21:55.694Z,71.51
2018-10-02T08:23:05.823Z,71.89
2018-10-02T08:24:16.014Z,71.8
2018-10-02T08:25:25.848Z,71.7
2018-10-02T08:26:36.196Z,71.45
2018-10-02T08:27:47.100Z,71.45
2018-10-02T08:28:57.479Z,71.17
2018-10-02T08:30:08.169Z,70.97
2018-10-02T08:31:18.910Z,70.69
2018-10-02T08:32:29.153Z,70.88
2018-10-02T08:33:39.775Z,70.59
2018-10-02T08:34:49.882Z,70.97
2018-10-02T08:36:00.459Z,70.31
2018-10-02T08:37:11.849Z,69.87
2018-10-02T08:38:22.076Z,69.87
2018-10-02T08:39:32.364Z,69.96
2018-10-02T08:40:42.955Z,69.96
2018-10-02T08:41:53.314Z,70.06
2018-10-02T08:43:04.218Z,69.39
2018-10-02T08:44:14.444Z,69.29
2018-10-02T08:45:24.658Z,69.77
2018-10-02T08:46:34.852Z,69.54
2018-10-02T08:47:45.039Z,70.12
2018-10-02T08:48:54.870Z,70.5
2018-10-02T08:50:04.796Z,70.4
2018-10-02T08:51:14.999Z,70.88
2018-10-02T08:52:25.264Z,70.97
2018-10-02T08:53:35.510Z,71.26
2018-10-02T08:54:45.739Z,70.97
2018-10-02T08:55:55.843Z,71.55
2018-10-02T08:57:06.157Z,71.45
2018-10-02T08:58:16.341Z,71.55
2018-10-02T08:59:26.580Z,72.12
2018-10-02T09:00:36.823Z,72.5
2018-10-02T09:01:47.520Z,72.97
2018-10-02T09:02:57.852Z,72.75
2018-10-02T09:04:11.673Z,73.13
2018-10-02T09:05:21.796Z,72.94
2018-10-02T09:06:32.026Z,73.89
2018-10-02T09:07:42.246Z,74.08
2018-10-02T09:08:52.404Z,73.99
2018-10-02T09:10:02.278Z,73.51
2018-10-02T09:11:12.411Z,74.37
2018-10-02T09:12:22.698Z,74.27
2018-10-02T09:13:32.953Z,74.37
2018-10-02T09:14:42.791Z,74.08
2018-10-02T09:15:53.436Z,75.04
2018-10-02T09:17:04.238Z,74.79
2018-10-02T09:18:14.401Z,74.88
2018-10-02T09:19:24.761Z,74.5
2018-10-02T09:20:34.694Z,74.4
2018-10-02T09:21:45.599Z,74.31
2018-10-02T09:22:55.978Z,74.4
2018-10-02T09:24:05.881Z,75.16
2018-10-02T09:25:15.871Z,75.16
2018-10-02T09:26:26.153Z,74.98
2018-10-02T09:27:36.392Z,75.26
2018-10-02T09:28:46.989Z,74.79
2018-10-02T09:29:57.257Z,74.98
2018-10-02T09:31:07.735Z,75.07
2018-10-02T09:32:18.286Z,75.74
2018-10-02T09:33:28.515Z,76.03
2018-10-02T09:34:38.881Z,75.55
2018-10-02T09:35:49.062Z,75.55
2018-10-02T09:36:59.510Z,75.55
2018-10-02T09:38:10.206Z,75.16
2018-10-02T09:39:20.406Z,75.36
2018-10-02T09:40:30.965Z,75.36
2018-10-02T09:41:41.122Z,74.79
2018-10-02T09:42:51.347Z,75.64
2018-10-02T09:44:01.584Z,75.36
2018-10-02T09:45:11.965Z,74.88
2018-10-02T09:46:22.228Z,75.26
2018-10-02T09:47:32.429Z,75.16
2018-10-02T09:48:42.838Z,74.88
2018-10-02T09:49:53.251Z,75.45
2018-10-02T09:51:04.002Z,75.16
2018-10-02T09:52:14.089Z,75.26
2018-10-02T09:53:24.280Z,75.64
2018-10-02T09:54:34.541Z,75.84
2018-10-02T09:55:45.373Z,76.03
2018-10-02T09:56:55.654Z,76.12
2018-10-02T09:58:06.228Z,75.84
2018-10-02T09:59:16.418Z,76.03
2018-10-02T10:00:26.643Z,75.84
2018-10-02T10:01:36.901Z,75.84
2018-10-02T10:02:47.155Z,76.18
2018-10-02T10:03:57.121Z,76.56
2018-10-02T10:05:07.329Z,77.03
2018-10-02T10:06:17.667Z,76.46
2018-10-02T10:07:27.806Z,76.56
2018-10-02T10:08:37.838Z,76.65
2018-10-02T10:09:47.969Z,76.65
2018-10-02T10:10:58.143Z,77.03
2018-10-02T10:12:08.263Z,76.94
2018-10-02T10:13:18.405Z,77.03
2018-10-02T10:14:28.745Z,76.94
2018-10-02T10:15:38.961Z,77.32
2018-10-02T10:16:49.597Z,77.8
2018-10-02T10:18:00.171Z,77.98
2018-10-02T10:19:10.370Z,77.7
2018-10-02T10:20:20.777Z,77.13
2018-10-02T10:21:30.968Z,76.94
2018-10-02T10:22:41.479Z,78.08
2018-10-02T10:23:51.930Z,77.98
2018-10-02T10:25:02.101Z,78.08
2018-10-02T10:26:12.487Z,78.08
2018-10-02T10:27:22.611Z,78.17
2018-10-02T10:28:32.928Z,78.27
2018-10-02T10:29:43.467Z,78.14
2018-10-02T10:30:53.681Z,78.17
2018-10-02T10:32:03.877Z,78.17
2018-10-02T10:33:13.661Z,78.08
2018-10-02T10:34:23.913Z,78.17
2018-10-02T10:35:34.014Z,77.98
2018-10-02T10:36:44.329Z,77.98
2018-10-02T10:37:54.194Z,78.17
2018-10-02T10:39:04.328Z,77.8
2018-10-02T10:40:14.308Z,77.8
2018-10-02T10:41:24.446Z,77.89
2018-10-02T10:42:34.067Z,77.98
2018-10-02T10:43:44.433Z,78.08
2018-10-02T10:44:54.550Z,76.94
2018-10-02T10:46:04.671Z,77.22
2018-10-02T10:47:14.809Z,77.22
2018-10-02T10:48:24.663Z,77.22
2018-10-02T10:49:34.807Z,77.13
2018-10-02T10:50:45.196Z,77.22
2018-10-02T10:51:55.350Z,77.03
2018-10-02T10:53:05.683Z,77.13
2018-10-02T10:54:15.895Z,77.8
2018-10-02T10:55:26.017Z,77.7
2018-10-02T10:56:36.415Z,77.7
2018-10-02T10:57:45.815Z,77.61
2018-10-02T10:58:56.065Z,77.03
2018-10-02T11:00:06.547Z,76.94
2018-10-02T11:01:16.685Z,77.13
2018-10-02T11:02:26.820Z,76.94
2018-10-02T11:03:36.996Z,77.13
2018-10-02T11:04:47.065Z,77.13
2018-10-02T11:05:57.340Z,77.42
2018-10-02T11:07:07.249Z,77.22
2018-10-02T11:08:17.621Z,77.22
2018-10-02T11:09:28.086Z,77.32
2018-10-02T11:10:38.532Z,77.32
2018-10-02T11:11:48.685Z,76.84
2018-10-02T11:12:58.845Z,76.84
2018-10-02T11:14:09.140Z,76.56
2018-10-02T11:15:19.423Z,76.65
2018-10-02T11:16:29.957Z,76.65
2018-10-02T11:17:39.828Z,76.37
2018-10-02T11:18:50.046Z,76.94
2018-10-02T11:20:00.353Z,76.46
2018-10-02T11:21:10.482Z,76.65
2018-10-02T11:22:20.626Z,76.46
2018-10-02T11:23:30.802Z,76.46
2018-10-02T11:24:40.966Z,76.56
2018-10-02T11:25:51.320Z,76.18
2018-10-02T11:27:01.936Z,76.75
2018-10-02T11:28:12.235Z,76.46
2018-10-02T11:29:22.400Z,75.93
2018-10-02T11:30:32.283Z,76.31
2018-10-02T11:31:42.688Z,75.93
2018-10-02T11:32:53.262Z,75.55
2018-10-02T11:34:03.479Z,75.74
2018-10-02T11:35:13.664Z,75.55
2018-10-02T11:36:23.701Z,75.84
2018-10-02T11:37:34.170Z,75.84
2018-10-02T11:38:44.178Z,75.84
2018-10-02T11:39:54.436Z,75.93
2018-10-02T11:41:04.651Z,75.84
2018-10-02T11:42:14.795Z,76.03
2018-10-02T11:43:25.116Z,76.03
2018-10-02T11:44:35.257Z,75.45
2018-10-02T11:45:46.030Z,75.36
2018-10-02T11:46:56.212Z,75.36
2018-10-02T11:48:06.126Z,75.26
2018-10-02T11:49:16.338Z,75.55
2018-10-02T11:50:27.221Z,75.74
2018-10-02T11:51:37.216Z,75.84
2018-10-02T11:52:47.373Z,75.55
2018-10-02T11:53:57.603Z,75.99
2018-10-02T11:55:07.818Z,76.12
2018-10-02T11:56:18.187Z,75.93
2018-10-02T11:57:28.466Z,76.12
2018-10-02T11:58:39.496Z,75.55
2018-10-02T11:59:49.646Z,75.64
2018-10-02T12:01:00.018Z,75.84
2018-10-02T12:02:10.661Z,75.84
2018-10-02T12:03:20.838Z,75.84
2018-10-02T12:04:31.493Z,76.21
2018-10-02T12:05:41.662Z,75.84
2018-10-02T12:06:52.516Z,75.93
2018-10-02T12:08:02.815Z,76.03
2018-10-02T12:09:13.077Z,76.03
2018-10-02T12:10:23.491Z,76.03
2018-10-02T12:11:33.688Z,76.12
2018-10-02T12:12:44.063Z,76.21
2018-10-02T12:13:54.620Z,76.18
2018-10-02T12:15:05.441Z,76.5
2018-10-02T12:16:15.570Z,76.5
2018-10-02T12:17:25.979Z,76.4
2018-10-02T12:18:36.122Z,76.5
2018-10-02T12:19:46.728Z,76.56
2018-10-02T12:20:58.230Z,76.98
2018-10-02T12:22:08.379Z,77.26
2018-10-02T12:23:18.536Z,77.26
2018-10-02T12:24:28.731Z,76.79
2018-10-02T12:25:38.893Z,76.79
2018-10-02T12:26:49.242Z,77.26
2018-10-02T12:27:59.020Z,76.98
2018-10-02T12:29:08.694Z,76.98
2018-10-02T12:30:18.218Z,76.98
2018-10-02T12:31:28.454Z,77.17
2018-10-02T12:32:38.295Z,76.88
2018-10-02T12:33:47.929Z,77.07
2018-10-02T12:34:57.738Z,76.88
2018-10-02T12:36:07.338Z,77.07
2018-10-02T12:37:17.662Z,76.98
2018-10-02T12:38:27.480Z,77.07
2018-10-02T12:39:37.185Z,76.79
2018-10-02T12:40:46.877Z,76.59
2018-10-02T12:41:58.043Z,76.88
2018-10-02T12:43:07.874Z,76.88
2018-10-02T12:44:19.000Z,76.98
2018-10-02T12:45:28.921Z,77.07
2018-10-02T12:46:38.724Z,76.98
2018-10-02T12:47:48.641Z,76.79
2018-10-02T12:48:58.557Z,76.12
2018-10-02T12:50:08.299Z,76.59
2018-10-02T12:51:17.978Z,76.79
2018-10-02T12:52:27.997Z,76.59
2018-10-02T12:53:38.121Z,76.79
2018-10-02T12:54:47.997Z,76.31
2018-10-02T12:55:57.888Z,76.59
2018-10-02T12:57:07.768Z,76.21
2018-10-02T12:58:17.293Z,76.03
2018-10-02T12:59:27.625Z,76.12
2018-10-02T13:00:37.765Z,75.93
2018-10-02T13:01:47.993Z,76.21
2018-10-02T13:02:57.946Z,75.74
2018-10-02T13:04:07.871Z,75.74
2018-10-02T13:05:17.719Z,75.93
2018-10-02T13:06:27.264Z,75.84
2018-10-02T13:07:37.307Z,75.74
2018-10-02T13:08:47.481Z,75.84
2018-10-02T13:09:57.481Z,75.55
2018-10-02T13:11:06.810Z,75.74
2018-10-02T13:12:16.748Z,75.74
2018-10-02T13:13:26.372Z,75.68
2018-10-02T13:14:36.229Z,75.87
2018-10-02T13:15:45.846Z,75.59
2018-10-02T13:16:55.723Z,75.96
2018-10-02T13:18:05.390Z,75.96
2018-10-02T13:19:15.522Z,75.87
2018-10-02T13:20:25.258Z,75.96
2018-10-02T13:21:35.019Z,75.49
2018-10-02T13:22:44.624Z,75.55
2018-10-02T13:23:54.296Z,75.68
2018-10-02T13:25:04.311Z,75.87
2018-10-02T13:26:14.508Z,75.2
2018-10-02T13:27:24.648Z,75.59
2018-10-02T13:28:34.503Z,75.4
2018-10-02T13:29:44.645Z,75.4
2018-10-02T13:30:55.055Z,75.49
2018-10-02T13:32:04.983Z,75.68
2018-10-02T13:33:15.195Z,75.59
2018-10-02T13:34:25.370Z,75.2
2018-10-02T13:35:35.757Z,75.01
2018-10-02T13:36:45.902Z,74.92
2018-10-02T13:37:56.571Z,74.82
2018-10-02T13:39:06.882Z,74.92
2018-10-02T13:40:17.217Z,74.54
2018-10-02T13:41:27.343Z,74.54
2018-10-02T13:42:37.528Z,74.35
2018-10-02T13:43:47.673Z,74.25
2018-10-02T13:44:57.824Z,74.44
2018-10-02T13:46:08.013Z,74.63
2018-10-02T13:47:18.270Z,75.11
2018-10-02T13:48:28.457Z,75.11
2018-10-02T13:49:38.240Z,74.92
2018-10-02T13:50:48.567Z,75.11
2018-10-02T13:51:58.444Z,74.92
2018-10-02T13:53:08.611Z,74.92
2018-10-02T13:54:21.928Z,75.59
2018-10-02T13:55:32.133Z,75.3
2018-10-02T13:56:42.257Z,75.2
2018-10-02T13:57:52.456Z,75.68
2018-10-02T13:59:02.595Z,75.96
2018-10-02T14:00:12.988Z,75.87
2018-10-02T14:01:23.580Z,75.68
2018-10-02T14:02:34.127Z,75.96
2018-10-02T14:03:44.288Z,75.59
2018-10-02T14:04:54.496Z,76.16
2018-10-02T14:06:04.628Z,75.96
2018-10-02T14:07:14.829Z,75.96
2018-10-02T14:08:24.607Z,76.06
2018-10-02T14:09:34.758Z,76.16
2018-10-02T14:10:44.939Z,76.54
2018-10-02T14:11:55.077Z,76.64
2018-10-02T14:13:05.208Z,76.64
2018-10-02T14:14:15.375Z,76.54
2018-10-02T14:15:25.610Z,77.01
2018-10-02T14:16:35.684Z,77.4
2018-10-02T14:17:46.295Z,78.06
2018-10-02T14:18:56.443Z,78.06
2018-10-02T14:20:06.600Z,77.87
2018-10-02T14:21:16.757Z,78.44
2018-10-02T14:22:26.544Z,78.16
2018-10-02T14:23:37.022Z,78.22
2018-10-02T14:24:47.879Z,78.64
2018-10-02T14:25:58.034Z,79.3
2018-10-02T14:27:08.323Z,79.11
2018-10-02T14:28:18.620Z,79.3
2018-10-02T14:29:28.854Z,79.11
2018-10-02T14:30:38.734Z,79.64
2018-10-02T14:31:48.947Z,79.21
2018-10-02T14:32:59.311Z,79.59
2018-10-02T14:34:09.556Z,79.59
2018-10-02T14:35:19.830Z,79.64
2018-10-02T14:36:30.045Z,80.22
2018-10-02T14:37:40.482Z,80.31
2018-10-02T14:38:50.613Z,80.79
2018-10-02T14:40:00.809Z,81.02
2018-10-02T14:41:10.481Z,80.6
2018-10-02T14:42:20.620Z,80.79
2018-10-02T14:43:30.768Z,80.73
2018-10-02T14:44:40.922Z,81.17
2018-10-02T14:45:52.049Z,81.17
2018-10-02T14:47:02.434Z,81.46
2018-10-02T14:48:12.661Z,82.69
2018-10-02T14:49:22.867Z,82.41
2018-10-02T14:50:33.433Z,82.69
2018-10-02T14:51:43.202Z,83.26
2018-10-02T14:52:53.396Z,83.07
2018-10-02T14:54:03.562Z,83.65
2018-10-02T14:55:13.376Z,85.17
2018-10-02T14:56:23.485Z,85.27
2018-10-02T14:57:33.484Z,84.88
2018-10-02T14:58:43.910Z,84.5
2018-10-02T14:59:54.072Z,84.69
2018-10-02T15:01:04.282Z,84.79
2018-10-02T15:02:14.630Z,85.27
2018-10-02T15:03:24.769Z,85.64
2018-10-02T15:04:34.684Z,85.55
2018-10-02T15:05:45.024Z,85.55
2018-10-02T15:06:55.268Z,85.55